createdAt,value
2022-11-17T06:23:38.348Z,99646.31
2022-11-17T06:26:09.780Z,99651.38
2022-11-17T06:28:43.221Z,99652.20
2022-11-17T06:31:11.833Z,99650.95
2022-11-17T06:33:41.104Z,99655.08
2022-11-17T06:36:11.334Z,99651.90
2022-11-17T06:38:40.301Z,99647.37
2022-11-17T06:41:12.157Z,99648.07
2022-11-17T06:43:43.272Z,99648.94
2022-11-17T06:46:12.607Z,99651.27
2022-11-17T06:48:42.400Z,99653.69
2022-11-17T06:51:12.868Z,99658.31
2022-11-17T06:53:41.218Z,99660.75
2022-11-17T06:56:11.263Z,99661.20
2022-11-17T06:58:41.816Z,99657.09
2022-11-17T07:01:13.137Z,99657.92
2022-11-17T07:03:43.651Z,99656.77
2022-11-17T07:06:12.921Z,99659.57
2022-11-17T07:08:42.688Z,99655.73
2022-11-17T07:11:14.138Z,99654.77
2022-11-17T07:13:44.599Z,99658.35
2022-11-17T07:21:12.536Z,99664.63
2022-11-17T07:23:44.346Z,99663.17
2022-11-17T07:26:14.763Z,99664.02
2022-11-17T07:28:42.847Z,99665.36
2022-11-17T07:31:11.088Z,99668.04
2022-11-17T07:33:42.167Z,99668.60
2022-11-17T07:36:14.282Z,99670.27
2022-11-17T07:38:45.111Z,99670.67
2022-11-17T07:41:16.935Z,99670.90
2022-11-17T07:43:47.706Z,99668.65
2022-11-17T07:46:16.895Z,99666.52
2022-11-17T07:54:19.580Z,99659.56
2022-11-17T08:02:26.148Z,99666.03
2022-11-17T08:04:54.731Z,99661.46
2022-11-17T08:07:23.146Z,99662.79
2022-11-17T08:09:51.782Z,99660.73
2022-11-17T08:12:21.702Z,99660.52
2022-11-17T08:14:49.600Z,99659.46
2022-11-17T08:17:18.236Z,99655.48
2022-11-17T08:58:09.248Z,99670.21
2022-11-17T09:00:36.893Z,99665.95
2022-11-17T09:03:09.696Z,99661.42
2022-11-17T17:42:47.844Z,99464.02
2022-11-17T17:45:17.519Z,99468.71
2022-11-17T17:47:47.165Z,99470.02
2022-11-17T17:50:18.335Z,99459.84
2022-11-17T17:52:54.486Z,99459.21
2022-11-17T17:55:26.027Z,99466.16
2022-11-17T17:57:56.349Z,99464.41
2022-11-17T18:00:25.779Z,99462.49
2022-11-17T18:02:59.908Z,99461.92
2022-11-17T18:05:30.825Z,99468.29
2022-11-17T18:08:00.174Z,99461.46
2022-11-17T18:10:30.106Z,99462.34
2022-11-17T18:12:59.233Z,99469.28
2022-11-17T18:15:27.750Z,99464.76
2022-11-17T18:17:58.874Z,99457.54
2022-11-17T18:20:29.045Z,99461.73
2022-11-17T18:23:01.282Z,99458.73
2022-11-17T18:25:32.226Z,99457.05
2022-11-17T18:28:04.219Z,99456.31
2022-11-17T18:30:33.414Z,99455.80
2022-11-17T18:33:04.264Z,99449.11
2022-11-17T18:35:38.331Z,99446.83
2022-11-17T18:38:07.753Z,99444.61
2022-11-17T18:40:38.154Z,99444.27
2022-11-17T18:43:09.954Z,99443.00
2022-11-17T18:45:40.835Z,99436.25
2022-11-17T18:48:10.541Z,99439.78
2022-11-17T18:51:17.423Z,99439.72
2022-11-17T18:53:38.425Z,99439.33
2022-11-17T18:56:13.984Z,99433.31
2022-11-17T18:58:43.986Z,99437.35
2022-11-17T19:01:25.274Z,99432.27
2022-11-17T19:04:04.183Z,99430.71
2022-11-17T19:06:33.544Z,99433.41
2022-11-17T19:09:16.668Z,99431.58
2022-11-17T19:11:49.429Z,99433.58
2022-11-17T19:14:32.304Z,99437.42
2022-11-17T19:17:04.250Z,99436.77
2022-11-17T19:19:38.164Z,99430.02
2022-11-17T19:22:08.424Z,99423.67
2022-11-17T19:24:46.222Z,99419.39
2022-11-17T19:27:22.678Z,99417.83
2022-11-17T19:29:59.271Z,99416.67
2022-11-17T19:32:36.034Z,99419.77
2022-11-17T19:35:17.146Z,99425.06
2022-11-17T19:38:00.209Z,99418.38
2022-11-17T19:40:37.573Z,99421.20
